Time;durP1;ratioP1;P1;durP2;ratioP2;P2;SDS_P1;SDS_P2;PMS_P1;PMS_P2;Temp;Humidity;BMP_temperature;BMP_pressure;BME280_temperature;BME280_humidity;BME280_pressure;Samples;Min_cycle;Max_cycle;Signal;HPM_P1;HPM_P2
2024/01/16 00:00:12;;;;;;;6.50;1.70;;;1.50;99.90;;;;;;4962970;28;20036;-62
2024/01/16 00:02:38;;;;;;;7.38;1.40;;;1.60;99.90;;;;;;4940656;28;20058;-61
2024/01/16 00:05:04;;;;;;;12.15;1.58;;;1.70;99.90;;;;;;4957054;28;20461;-61
2024/01/16 00:07:32;;;;;;;11.75;1.45;;;1.60;99.90;;;;;;4923197;28;20110;-61
2024/01/16 00:09:58;;;;;;;9.52;1.60;;;1.60;99.90;;;;;;4939506;28;20065;-61
2024/01/16 00:12:24;;;;;;;10.02;1.50;;;1.60;99.90;;;;;;4922728;28;20040;-61
2024/01/16 00:14:49;;;;;;;12.50;1.98;;;1.70;99.90;;;;;;4930584;28;20051;-61
2024/01/16 00:17:15;;;;;;;7.43;1.85;;;1.60;99.90;;;;;;4948198;28;20043;-62
2024/01/16 00:19:41;;;;;;;5.88;1.30;;;1.60;99.90;;;;;;4925067;28;20044;-62
2024/01/16 00:22:06;;;;;;;5.57;1.20;;;1.60;99.90;;;;;;4911140;28;20609;-61
2024/01/16 00:24:32;;;;;;;11.68;1.30;;;1.60;99.90;;;;;;4927564;28;20522;-61
2024/01/16 00:26:58;;;;;;;14.02;2.17;;;1.60;99.90;;;;;;4957564;28;20102;-61
2024/01/16 00:29:23;;;;;;;8.82;2.00;;;1.60;99.90;;;;;;4925298;28;20206;-61
2024/01/16 00:31:49;;;;;;;10.80;1.35;;;1.60;99.90;;;;;;4946158;28;20049;-61
2024/01/16 00:34:15;;;;;;;5.07;1.27;;;1.60;99.90;;;;;;4916980;28;20047;-61
2024/01/16 00:36:41;;;;;;;8.98;1.45;;;1.60;99.90;;;;;;4930740;28;20046;-61
2024/01/16 00:39:07;;;;;;;12.20;1.30;;;1.60;99.90;;;;;;4945579;28;20507;-61
2024/01/16 00:41:33;;;;;;;9.65;1.90;;;1.60;99.90;;;;;;4946386;28;20510;-60
2024/01/16 00:43:59;;;;;;;6.78;1.10;;;1.60;99.90;;;;;;4928112;28;20072;-61
2024/01/16 00:46:25;;;;;;;11.77;1.95;;;1.60;99.90;;;;;;4949684;28;20067;-61
2024/01/16 00:48:50;;;;;;;7.85;1.40;;;1.60;99.90;;;;;;4921450;28;21330;-61
2024/01/16 00:51:16;;;;;;;7.75;1.08;;;1.60;99.90;;;;;;4920876;28;20060;-60
2024/01/16 00:53:43;;;;;;;5.22;0.90;;;1.60;99.90;;;;;;4926206;28;20067;-61
2024/01/16 00:56:09;;;;;;;12.55;1.65;;;1.60;99.90;;;;;;4940213;28;20040;-61
2024/01/16 00:58:34;;;;;;;5.60;0.93;;;1.60;99.90;;;;;;4929252;28;20463;-61
2024/01/16 01:01:00;;;;;;;8.23;1.80;;;1.50;99.90;;;;;;4947056;28;20104;-61
2024/01/16 01:03:26;;;;;;;5.63;1.20;;;1.50;99.90;;;;;;4903078;28;20333;-61
2024/01/16 01:05:52;;;;;;;10.93;2.38;;;1.50;99.90;;;;;;4937651;28;20033;-61
2024/01/16 01:08:18;;;;;;;7.60;0.93;;;1.40;99.90;;;;;;4912473;28;20130;-61
2024/01/16 01:10:44;;;;;;;6.53;1.27;;;1.40;99.90;;;;;;4941607;28;20054;-61
2024/01/16 01:13:10;;;;;;;4.43;0.95;;;1.40;99.90;;;;;;4932951;28;20048;-61
2024/01/16 01:15:35;;;;;;;12.93;1.63;;;1.40;99.90;;;;;;4919862;28;20050;-61
2024/01/16 01:18:01;;;;;;;6.75;1.48;;;1.30;99.90;;;;;;4923324;28;20072;-61
2024/01/16 01:20:27;;;;;;;6.63;1.30;;;1.30;99.90;;;;;;4914244;28;20043;-60
2024/01/16 01:22:52;;;;;;;4.15;1.77;;;1.30;99.90;;;;;;4978193;28;20114;-60
2024/01/16 01:25:18;;;;;;;7.15;1.27;;;1.30;99.90;;;;;;4927274;28;20055;-61
2024/01/16 01:27:44;;;;;;;6.25;1.02;;;1.30;99.90;;;;;;4933851;28;20040;-61
2024/01/16 01:30:10;;;;;;;7.63;1.20;;;1.30;99.90;;;;;;4969449;28;20035;-61
2024/01/16 01:32:36;;;;;;;4.90;0.98;;;1.30;99.90;;;;;;4939757;28;20110;-61
2024/01/16 01:35:03;;;;;;;7.22;1.38;;;1.30;99.90;;;;;;4929979;28;20037;-61
2024/01/16 01:37:29;;;;;;;11.25;1.70;;;1.30;99.90;;;;;;4916064;28;20040;-61
2024/01/16 01:39:54;;;;;;;4.68;0.82;;;1.30;99.90;;;;;;4929599;28;20044;-61
2024/01/16 01:42:20;;;;;;;4.68;0.98;;;1.40;99.90;;;;;;4929511;28;20075;-61
2024/01/16 01:44:46;;;;;;;13.35;1.42;;;1.40;99.90;;;;;;4946115;28;20122;-61
2024/01/16 01:47:13;;;;;;;6.20;1.00;;;1.50;99.90;;;;;;4931002;28;20059;-61
2024/01/16 01:49:38;;;;;;;7.00;2.17;;;1.50;99.90;;;;;;4922494;28;20051;-60
2024/01/16 01:52:05;;;;;;;8.57;1.27;;;1.50;99.90;;;;;;4929975;28;20056;-62
2024/01/16 01:54:33;;;;;;;6.10;1.77;;;1.50;99.90;;;;;;4939346;28;20508;-61
2024/01/16 01:56:59;;;;;;;8.57;4.10;;;1.50;99.90;;;;;;4915762;28;20053;-60
2024/01/16 01:59:25;;;;;;;10.82;1.95;;;1.50;99.90;;;;;;4919800;28;20052;-61
2024/01/16 02:01:54;;;;;;;9.35;1.48;;;1.50;99.90;;;;;;4939635;28;20052;-60
2024/01/16 02:04:22;;;;;;;6.15;1.20;;;1.50;99.90;;;;;;4940757;28;20674;-61
2024/01/16 02:06:48;;;;;;;9.73;2.13;;;1.50;99.90;;;;;;4968851;28;20041;-61
2024/01/16 02:09:14;;;;;;;8.88;1.25;;;1.50;99.90;;;;;;4925926;28;20039;-61
2024/01/16 02:11:43;;;;;;;5.82;1.10;;;1.40;99.90;;;;;;4909841;28;20043;-61
2024/01/16 02:14:09;;;;;;;6.65;1.20;;;1.30;99.90;;;;;;4942310;28;20526;-61
2024/01/16 02:16:40;;;;;;;6.82;1.30;;;1.30;99.90;;;;;;4927669;28;20054;-61
2024/01/16 02:19:06;;;;;;;11.65;1.50;;;1.20;99.90;;;;;;4903315;28;20036;-61
2024/01/16 02:21:48;;;;;;;9.38;1.40;;;1.20;99.90;;;;;;4931639;28;20135;-62
2024/01/16 02:24:15;;;;;;;11.15;1.98;;;1.20;99.90;;;;;;4930640;28;20032;-61
2024/01/16 02:26:41;;;;;;;11.93;1.40;;;1.20;99.90;;;;;;4928058;28;20126;-62
2024/01/16 02:29:07;;;;;;;12.73;1.55;;;1.20;99.90;;;;;;4976770;28;20224;-61
2024/01/16 02:31:33;;;;;;;10.13;1.27;;;1.20;99.90;;;;;;4909761;28;20056;-62
2024/01/16 02:33:59;;;;;;;6.95;1.63;;;1.10;99.90;;;;;;4966707;28;20132;-62
2024/01/16 02:36:27;;;;;;;13.38;1.60;;;1.20;99.90;;;;;;4907551;28;20406;-61
2024/01/16 02:38:52;;;;;;;12.32;2.20;;;1.10;99.90;;;;;;4947220;28;20041;-61
2024/01/16 02:41:18;;;;;;;6.05;1.65;;;1.10;99.90;;;;;;4923821;28;20487;-62
2024/01/16 02:43:44;;;;;;;8.65;1.30;;;1.10;99.90;;;;;;4941770;28;20063;-61
2024/01/16 02:46:10;;;;;;;10.60;2.65;;;1.10;99.90;;;;;;4913935;28;20082;-61
2024/01/16 02:48:36;;;;;;;3.33;1.02;;;1.10;99.90;;;;;;4921957;28;20468;-61
2024/01/16 02:51:03;;;;;;;7.82;1.30;;;1.10;99.90;;;;;;4910766;28;20095;-61
2024/01/16 02:53:29;;;;;;;9.18;1.27;;;1.00;99.90;;;;;;4932255;28;20525;-61
2024/01/16 02:55:58;;;;;;;5.63;1.02;;;1.00;99.90;;;;;;4946054;28;20042;-62
2024/01/16 02:58:24;;;;;;;4.95;1.02;;;1.00;99.90;;;;;;4976779;28;20503;-62
2024/01/16 03:00:50;;;;;;;7.93;0.98;;;1.00;99.90;;;;;;4927394;28;20143;-61
2024/01/16 03:03:17;;;;;;;9.90;1.23;;;1.00;99.90;;;;;;4937861;28;20550;-62
2024/01/16 03:05:42;;;;;;;7.75;1.38;;;1.10;99.90;;;;;;4908656;28;20047;-61
2024/01/16 03:08:08;;;;;;;8.98;1.20;;;1.10;99.90;;;;;;4900284;28;20093;-62
2024/01/16 03:10:34;;;;;;;5.65;0.95;;;1.10;99.90;;;;;;4963342;28;20054;-62
2024/01/16 03:12:59;;;;;;;6.20;1.00;;;1.10;99.90;;;;;;4977634;28;20048;-61
2024/01/16 03:15:25;;;;;;;10.48;1.98;;;1.10;99.90;;;;;;4931068;28;20054;-61
2024/01/16 03:17:51;;;;;;;6.28;1.13;;;1.10;99.90;;;;;;4941091;28;20037;-62
2024/01/16 03:20:18;;;;;;;9.52;1.23;;;1.20;99.90;;;;;;4938693;28;20052;-61
2024/01/16 03:22:44;;;;;;;9.10;1.27;;;1.20;99.90;;;;;;4909509;28;20475;-62
2024/01/16 03:25:13;;;;;;;6.35;1.20;;;1.20;99.90;;;;;;4924918;28;20071;-62
2024/01/16 03:27:39;;;;;;;12.98;2.03;;;1.20;99.90;;;;;;4911088;28;20449;-61
2024/01/16 03:30:06;;;;;;;6.70;1.67;;;1.20;99.90;;;;;;4938575;28;20121;-61
2024/01/16 03:32:32;;;;;;;11.52;1.35;;;1.20;99.90;;;;;;4932788;28;20079;-62
2024/01/16 03:34:58;;;;;;;14.45;2.03;;;1.30;99.90;;;;;;4965487;28;20502;-61
2024/01/16 03:37:23;;;;;;;13.90;2.00;;;1.30;99.90;;;;;;4930316;28;20121;-61
2024/01/16 03:39:50;;;;;;;4.03;1.27;;;1.30;99.90;;;;;;4934604;28;20048;-61
2024/01/16 03:42:16;;;;;;;7.43;1.55;;;1.30;99.90;;;;;;4909505;28;20040;-61
2024/01/16 03:44:41;;;;;;;13.52;1.58;;;1.30;99.90;;;;;;4946621;28;20038;-61
2024/01/16 03:47:08;;;;;;;10.30;1.77;;;1.40;99.90;;;;;;4940867;28;20074;-61
2024/01/16 03:49:34;;;;;;;6.30;1.10;;;1.40;99.90;;;;;;4911884;28;20286;-61
2024/01/16 03:52:00;;;;;;;20.95;2.85;;;1.40;99.90;;;;;;4936220;28;20530;-60
2024/01/16 03:54:26;;;;;;;10.50;1.88;;;1.40;99.90;;;;;;4947133;28;20079;-61
2024/01/16 03:56:53;;;;;;;8.45;2.17;;;1.40;99.90;;;;;;4954228;28;20071;-62
2024/01/16 03:59:18;;;;;;;9.45;1.25;;;1.50;99.90;;;;;;4926326;28;20055;-61
2024/01/16 04:01:45;;;;;;;12.38;1.75;;;1.50;99.90;;;;;;4947315;28;20099;-62
2024/01/16 04:04:11;;;;;;;6.85;1.30;;;1.50;99.90;;;;;;4941874;28;20062;-60
2024/01/16 04:06:37;;;;;;;11.85;1.40;;;1.50;99.90;;;;;;4983875;28;20043;-61
2024/01/16 04:09:03;;;;;;;8.80;1.50;;;1.50;99.90;;;;;;4946848;28;20122;-60
2024/01/16 04:11:29;;;;;;;9.10;1.23;;;1.50;99.90;;;;;;4943216;28;20503;-61
2024/01/16 04:13:55;;;;;;;5.35;1.25;;;1.50;99.90;;;;;;4944787;28;20050;-62
2024/01/16 04:16:21;;;;;;;11.70;1.83;;;1.50;99.90;;;;;;4925243;28;20341;-60
2024/01/16 04:18:47;;;;;;;6.82;1.15;;;1.50;99.90;;;;;;4921280;28;20330;-61
2024/01/16 04:21:13;;;;;;;9.18;1.33;;;1.50;99.90;;;;;;4944861;28;20423;-62
2024/01/16 04:23:39;;;;;;;9.30;1.30;;;1.40;99.90;;;;;;4936179;28;20462;-61
2024/01/16 04:26:05;;;;;;;6.72;2.33;;;1.40;99.90;;;;;;4977486;28;20532;-62
2024/01/16 04:28:30;;;;;;;9.77;3.38;;;1.50;99.90;;;;;;4943464;28;20051;-62
2024/01/16 04:30:56;;;;;;;10.10;2.60;;;1.40;99.90;;;;;;4927970;28;20043;-61
2024/01/16 04:33:22;;;;;;;8.32;1.88;;;1.40;99.90;;;;;;4936570;28;20053;-61
2024/01/16 04:35:47;;;;;;;9.00;2.30;;;1.40;99.90;;;;;;4928175;28;20041;-61
2024/01/16 04:38:13;;;;;;;7.65;1.80;;;1.30;99.90;;;;;;4947616;28;20063;-62
2024/01/16 04:40:39;;;;;;;7.78;1.42;;;1.30;99.90;;;;;;4936555;28;20478;-61
2024/01/16 04:43:05;;;;;;;8.05;1.42;;;1.30;99.90;;;;;;4913702;28;20206;-62
2024/01/16 04:45:31;;;;;;;12.45;1.30;;;1.20;99.90;;;;;;4921648;28;20035;-62
2024/01/16 04:47:56;;;;;;;8.45;1.38;;;1.30;99.90;;;;;;4958951;28;20059;-61
2024/01/16 04:50:23;;;;;;;13.50;3.33;;;1.30;99.90;;;;;;4913428;28;20530;-62
2024/01/16 04:52:49;;;;;;;11.15;1.48;;;1.30;99.90;;;;;;4922214;28;20041;-61
2024/01/16 04:55:14;;;;;;;6.40;2.00;;;1.30;99.90;;;;;;4922729;28;20047;-62
2024/01/16 04:57:41;;;;;;;10.05;1.70;;;1.30;99.90;;;;;;4937812;28;20048;-61
2024/01/16 05:00:07;;;;;;;11.27;1.58;;;1.30;99.90;;;;;;4921974;28;20125;-62
2024/01/16 05:02:33;;;;;;;10.55;1.45;;;1.30;99.90;;;;;;4975974;28;20032;-61
2024/01/16 05:04:59;;;;;;;14.90;1.33;;;1.30;99.90;;;;;;4957062;28;20496;-62
2024/01/16 05:07:26;;;;;;;6.32;1.27;;;1.40;99.90;;;;;;4920814;28;20036;-62
2024/01/16 05:09:52;;;;;;;6.50;1.27;;;1.30;99.90;;;;;;4960139;28;20037;-62
2024/01/16 05:12:18;;;;;;;7.32;1.38;;;1.40;99.90;;;;;;4913912;28;20477;-60
2024/01/16 05:14:43;;;;;;;13.40;1.60;;;1.40;99.90;;;;;;4937602;28;20047;-61
2024/01/16 05:17:09;;;;;;;21.05;2.45;;;1.50;99.90;;;;;;4983037;28;20043;-60
2024/01/16 05:19:35;;;;;;;12.40;1.83;;;1.40;99.90;;;;;;4967072;28;20091;-62
2024/01/16 05:22:00;;;;;;;5.78;1.23;;;1.40;99.90;;;;;;4921925;28;20099;-61
2024/01/16 05:24:26;;;;;;;9.00;1.27;;;1.40;99.90;;;;;;4929424;28;20410;-61
2024/01/16 05:26:52;;;;;;;8.05;1.35;;;1.40;99.90;;;;;;4936080;28;20168;-62
2024/01/16 05:29:18;;;;;;;8.57;1.23;;;1.50;99.90;;;;;;4958795;28;20302;-62
2024/01/16 05:31:44;;;;;;;5.95;1.65;;;1.40;99.90;;;;;;4946723;28;20062;-61
2024/01/16 05:34:11;;;;;;;5.53;1.38;;;1.40;99.90;;;;;;4981005;28;20047;-61
2024/01/16 05:36:37;;;;;;;14.00;1.80;;;1.40;99.90;;;;;;4981182;28;20517;-61
2024/01/16 05:39:02;;;;;;;8.27;1.15;;;1.40;99.90;;;;;;4941209;28;20509;-61
2024/01/16 05:41:33;;;;;;;7.70;1.55;;;1.40;99.90;;;;;;4928002;28;20078;-61
2024/01/16 05:43:59;;;;;;;7.43;1.90;;;1.40;99.90;;;;;;4919968;28;20045;-62
2024/01/16 05:46:25;;;;;;;8.38;1.55;;;1.40;99.90;;;;;;4935558;28;20059;-61
2024/01/16 05:48:50;;;;;;;12.88;2.25;;;1.40;99.90;;;;;;4944781;23;20135;-61
2024/01/16 05:51:16;;;;;;;12.95;1.63;;;1.50;99.90;;;;;;4899271;28;20181;-61
2024/01/16 05:53:43;;;;;;;5.50;1.40;;;1.50;99.90;;;;;;4911916;28;20072;-61
2024/01/16 05:56:09;;;;;;;8.10;1.52;;;1.50;99.90;;;;;;4910529;28;20094;-61
2024/01/16 05:58:38;;;;;;;12.27;1.80;;;1.50;99.90;;;;;;4891815;28;20032;-62
2024/01/16 06:01:05;;;;;;;10.73;1.40;;;1.50;99.90;;;;;;4893948;28;20047;-61
2024/01/16 06:03:31;;;;;;;10.05;1.55;;;1.50;99.90;;;;;;4900916;28;20050;-61
2024/01/16 06:05:56;;;;;;;9.85;2.15;;;1.50;99.90;;;;;;4888232;28;20124;-61
2024/01/16 06:08:22;;;;;;;8.13;1.40;;;1.50;99.90;;;;;;4893519;28;20071;-62
2024/01/16 06:10:48;;;;;;;10.52;1.42;;;1.50;99.90;;;;;;4888250;28;20055;-62
2024/01/16 06:13:13;;;;;;;8.98;1.85;;;1.60;99.90;;;;;;4913212;28;20046;-62
2024/01/16 06:15:39;;;;;;;8.05;1.73;;;1.50;99.90;;;;;;4885411;28;20127;-61
2024/01/16 06:18:05;;;;;;;10.20;1.75;;;1.50;99.90;;;;;;4877840;28;20040;-61
2024/01/16 06:20:32;;;;;;;7.30;2.72;;;1.50;99.90;;;;;;4909427;28;20051;-62
2024/01/16 06:22:57;;;;;;;9.05;1.40;;;1.50;99.90;;;;;;4920563;28;20056;-62
2024/01/16 06:25:23;;;;;;;9.05;1.90;;;1.50;99.90;;;;;;4883773;28;20052;-62
2024/01/16 06:27:49;;;;;;;13.38;1.58;;;1.50;99.90;;;;;;4887089;28;20051;-61
2024/01/16 06:30:15;;;;;;;7.00;1.92;;;1.50;99.90;;;;;;4907885;28;20056;-61
2024/01/16 06:32:40;;;;;;;10.15;1.23;;;1.50;99.90;;;;;;4904412;28;20047;-61
2024/01/16 06:35:07;;;;;;;11.05;1.50;;;1.50;99.90;;;;;;4886652;28;20584;-61
2024/01/16 06:37:33;;;;;;;14.15;1.40;;;1.50;99.90;;;;;;4884584;28;20056;-61
2024/01/16 06:39:59;;;;;;;11.43;1.85;;;1.50;99.90;;;;;;4873228;28;20198;-61
2024/01/16 06:42:24;;;;;;;9.30;1.73;;;1.50;99.90;;;;;;4889427;28;20375;-62
2024/01/16 06:44:50;;;;;;;9.65;1.63;;;1.50;99.90;;;;;;4875721;28;20123;-61
2024/01/16 06:47:16;;;;;;;9.23;2.00;;;1.50;99.90;;;;;;4889472;28;20383;-62
2024/01/16 06:49:41;;;;;;;8.43;1.42;;;1.50;99.90;;;;;;4888699;28;20522;-61
2024/01/16 06:52:09;;;;;;;8.45;1.40;;;1.50;99.90;;;;;;4876749;28;20578;-61
2024/01/16 06:54:34;;;;;;;8.63;1.77;;;1.50;99.90;;;;;;4938046;28;20052;-62
2024/01/16 06:57:00;;;;;;;10.13;1.88;;;1.50;99.90;;;;;;4890548;28;20454;-62
2024/01/16 06:59:26;;;;;;;11.75;1.95;;;1.50;99.90;;;;;;4874208;28;20040;-62
2024/01/16 07:01:52;;;;;;;13.10;3.28;;;1.50;99.90;;;;;;4888221;28;20488;-62
2024/01/16 07:04:17;;;;;;;7.70;1.90;;;1.50;99.90;;;;;;4910235;28;20032;-61
2024/01/16 07:06:43;;;;;;;5.82;1.65;;;1.50;99.90;;;;;;4889671;28;20046;-62
2024/01/16 07:09:13;;;;;;;11.50;1.75;;;1.50;99.90;;;;;;4901759;28;20076;-62
2024/01/16 07:11:42;;;;;;;7.47;1.88;;;1.50;99.90;;;;;;4888015;28;20044;-61
2024/01/16 07:14:11;;;;;;;9.50;1.73;;;1.50;99.90;;;;;;4887537;28;20044;-61
2024/01/16 07:16:37;;;;;;;11.73;3.20;;;1.50;99.90;;;;;;4891731;28;20290;-61
2024/01/16 07:19:03;;;;;;;11.70;1.90;;;1.50;99.90;;;;;;4887769;28;20048;-61
2024/01/16 07:21:29;;;;;;;8.82;2.17;;;1.50;99.90;;;;;;4900832;28;20067;-62
2024/01/16 07:23:55;;;;;;;7.22;1.30;;;1.40;99.90;;;;;;4890782;28;20036;-61
2024/01/16 07:26:21;;;;;;;8.00;2.05;;;1.50;99.90;;;;;;4900809;28;20043;-61
2024/01/16 07:28:50;;;;;;;8.15;1.20;;;1.40;99.90;;;;;;4887836;28;20044;-61
2024/01/16 07:31:16;;;;;;;7.00;1.67;;;1.50;99.90;;;;;;4892885;28;20487;-61
2024/01/16 07:33:42;;;;;;;9.60;1.67;;;1.50;99.90;;;;;;4904491;28;20063;-60
2024/01/16 07:36:09;;;;;;;12.18;1.20;;;1.50;99.90;;;;;;4893302;28;20032;-61
2024/01/16 07:38:38;;;;;;;10.95;1.55;;;1.50;99.90;;;;;;4910813;28;20079;-61
2024/01/16 07:41:05;;;;;;;8.40;1.95;;;1.50;99.90;;;;;;4914114;28;20044;-62
2024/01/16 07:43:31;;;;;;;7.13;1.63;;;1.50;99.90;;;;;;4912805;28;20154;-61
2024/01/16 07:45:57;;;;;;;6.63;1.17;;;1.50;99.90;;;;;;4890335;28;20155;-61
2024/01/16 07:48:23;;;;;;;8.18;1.20;;;1.50;99.90;;;;;;4889244;28;20499;-61
2024/01/16 07:50:49;;;;;;;8.13;1.48;;;1.50;99.90;;;;;;4890495;28;20048;-60
2024/01/16 07:53:15;;;;;;;7.38;1.63;;;1.60;99.90;;;;;;4970361;28;20445;-61
2024/01/16 07:55:41;;;;;;;13.68;1.73;;;1.60;99.90;;;;;;4904551;28;20042;-61
2024/01/16 07:58:07;;;;;;;6.97;1.08;;;1.60;99.90;;;;;;4910596;28;20102;-61
2024/01/16 08:00:33;;;;;;;6.70;1.27;;;1.60;99.90;;;;;;4895678;28;20059;-61
2024/01/16 08:02:58;;;;;;;5.13;1.30;;;1.60;99.90;;;;;;4892318;28;20128;-61
2024/01/16 08:05:33;;;;;;;7.03;1.20;;;1.70;99.90;;;;;;4897849;28;20110;-61
2024/01/16 08:07:59;;;;;;;5.20;1.10;;;1.70;99.90;;;;;;4915780;28;20070;-61
2024/01/16 08:10:24;;;;;;;9.30;2.67;;;1.70;99.90;;;;;;4890827;28;20048;-62
2024/01/16 08:12:50;;;;;;;10.20;3.85;;;1.70;99.90;;;;;;4914460;28;20036;-62
2024/01/16 08:15:16;;;;;;;7.72;2.50;;;1.80;99.90;;;;;;4901021;28;20450;-61
2024/01/16 08:17:41;;;;;;;14.32;4.28;;;1.70;99.90;;;;;;4902778;28;20250;-62
2024/01/16 08:20:11;;;;;;;15.30;4.47;;;1.70;99.90;;;;;;4873600;28;20066;-62
2024/01/16 08:22:37;;;;;;;12.75;2.25;;;1.70;99.90;;;;;;4887316;28;20458;-62
2024/01/16 08:25:06;;;;;;;8.95;1.02;;;1.70;99.90;;;;;;4909335;28;20040;-62
2024/01/16 08:27:33;;;;;;;4.82;0.95;;;1.70;99.90;;;;;;4903801;28;20044;-62
2024/01/16 08:29:58;;;;;;;5.07;1.40;;;1.80;99.90;;;;;;4902371;28;20481;-61
2024/01/16 08:32:24;;;;;;;6.38;1.20;;;1.70;99.90;;;;;;4889036;28;20131;-62
2024/01/16 08:34:50;;;;;;;5.47;1.17;;;1.80;99.90;;;;;;4893568;28;20044;-62
2024/01/16 08:37:16;;;;;;;4.43;0.93;;;1.80;99.90;;;;;;4886975;28;20745;-62
2024/01/16 08:39:41;;;;;;;9.00;1.15;;;1.70;99.90;;;;;;4898457;28;20052;-62
2024/01/16 08:42:11;;;;;;;11.50;1.95;;;1.80;99.90;;;;;;4887042;28;20070;-62
2024/01/16 08:44:39;;;;;;;7.72;1.20;;;1.70;99.90;;;;;;4919122;28;20431;-62
2024/01/16 08:47:06;;;;;;;6.15;1.10;;;1.70;99.90;;;;;;4968347;28;20115;-62
2024/01/16 08:49:32;;;;;;;5.38;1.02;;;1.70;99.90;;;;;;4886401;28;20113;-62
2024/01/16 08:51:58;;;;;;;4.57;0.85;;;1.70;99.90;;;;;;4917738;28;20137;-62
2024/01/16 08:54:25;;;;;;;8.25;1.15;;;1.70;99.90;;;;;;4899361;28;20076;-63
2024/01/16 08:56:54;;;;;;;2.40;1.00;;;1.70;99.90;;;;;;4875340;28;20059;-62
2024/01/16 08:59:21;;;;;;;3.53;0.95;;;1.70;99.90;;;;;;4888087;28;20049;-62
2024/01/16 09:01:46;;;;;;;5.88;1.33;;;1.70;99.90;;;;;;4855750;28;20086;-62
2024/01/16 09:04:12;;;;;;;6.53;2.10;;;1.70;99.90;;;;;;4888974;28;20130;-62
2024/01/16 09:06:38;;;;;;;11.45;3.38;;;1.80;99.90;;;;;;4882500;28;20458;-63
2024/01/16 09:09:04;;;;;;;5.45;1.92;;;1.70;99.90;;;;;;4870690;28;20048;-62
2024/01/16 09:11:31;;;;;;;5.72;1.40;;;1.70;99.90;;;;;;4868695;28;20056;-62
2024/01/16 09:13:57;;;;;;;7.72;1.98;;;1.70;99.90;;;;;;4877695;28;20126;-62
2024/01/16 09:16:23;;;;;;;5.45;1.10;;;1.80;99.90;;;;;;4871109;28;20070;-63
2024/01/16 09:18:49;;;;;;;5.32;0.80;;;1.80;99.90;;;;;;4877146;28;20080;-63
2024/01/16 09:21:15;;;;;;;5.38;1.02;;;1.80;99.90;;;;;;4873549;28;20059;-63
2024/01/16 09:23:40;;;;;;;3.47;1.00;;;1.90;99.90;;;;;;4871017;28;20411;-62
2024/01/16 09:26:06;;;;;;;6.45;1.05;;;1.90;99.90;;;;;;4869203;28;20083;-62
2024/01/16 09:28:32;;;;;;;5.53;0.90;;;2.00;99.90;;;;;;4873927;28;20052;-62
2024/01/16 09:30:58;;;;;;;4.90;1.77;;;2.00;99.90;;;;;;4878300;28;20775;-62
2024/01/16 09:33:25;;;;;;;5.80;1.05;;;2.10;99.90;;;;;;4886283;28;20395;-62
2024/01/16 09:35:51;;;;;;;5.50;1.00;;;2.10;99.90;;;;;;4886330;28;20062;-62
2024/01/16 09:38:17;;;;;;;4.10;0.90;;;2.20;99.90;;;;;;4869020;28;20048;-62
2024/01/16 09:40:43;;;;;;;9.77;2.80;;;2.20;99.90;;;;;;4867744;28;20086;-62
2024/01/16 09:43:10;;;;;;;4.70;1.50;;;2.10;99.90;;;;;;4877133;28;20044;-62
2024/01/16 09:45:38;;;;;;;4.78;1.27;;;2.10;99.90;;;;;;4873651;28;20123;-63
2024/01/16 09:48:05;;;;;;;5.07;1.45;;;2.10;99.90;;;;;;4871968;28;20085;-62
2024/01/16 09:50:31;;;;;;;5.00;1.67;;;2.10;99.90;;;;;;4858710;28;20059;-62
2024/01/16 09:52:56;;;;;;;6.90;1.70;;;2.00;99.90;;;;;;4956503;28;20044;-63
2024/01/16 09:55:22;;;;;;;10.30;3.60;;;2.10;99.90;;;;;;4875170;28;20040;-62
2024/01/16 09:57:52;;;;;;;9.07;3.13;;;2.00;99.90;;;;;;4891281;28;20075;-62
2024/01/16 10:00:18;;;;;;;9.35;3.00;;;2.00;99.90;;;;;;4870455;28;20110;-62
2024/01/16 10:02:43;;;;;;;7.95;1.73;;;2.00;99.90;;;;;;4875428;28;20473;-62
2024/01/16 10:05:13;;;;;;;7.82;1.67;;;2.00;99.90;;;;;;4858193;28;20345;-62
2024/01/16 10:07:45;;;;;;;7.38;3.35;;;2.00;99.90;;;;;;4889328;28;20048;-62
2024/01/16 10:10:11;;;;;;;4.15;1.85;;;2.10;99.90;;;;;;4866801;28;20047;-63
2024/01/16 10:12:41;;;;;;;3.08;0.90;;;2.10;99.90;;;;;;4891886;28;20046;-62
2024/01/16 10:15:08;;;;;;;4.72;0.90;;;2.10;99.90;;;;;;4894513;28;20055;-62
2024/01/16 10:17:41;;;;;;;6.43;1.15;;;2.10;99.90;;;;;;4904668;28;20040;-62
2024/01/16 10:20:12;;;;;;;6.43;1.10;;;2.10;99.90;;;;;;4906805;28;20036;-62
2024/01/16 10:22:51;;;;;;;3.55;0.80;;;2.10;99.90;;;;;;4906045;28;20042;-62
2024/01/16 10:25:19;;;;;;;4.72;1.08;;;2.20;99.90;;;;;;4890188;28;20071;-62
2024/01/16 10:27:45;;;;;;;3.45;1.13;;;2.20;99.90;;;;;;4890619;28;20071;-62
2024/01/16 10:30:12;;;;;;;4.60;1.10;;;2.10;99.90;;;;;;4912175;28;20703;-62
2024/01/16 10:32:40;;;;;;;5.07;1.27;;;2.20;99.90;;;;;;4912735;28;20465;-62
2024/01/16 10:35:13;;;;;;;3.88;1.48;;;2.20;99.90;;;;;;4892949;28;20118;-62
2024/01/16 10:37:46;;;;;;;4.80;1.53;;;2.20;99.90;;;;;;4907675;28;20040;-62
2024/01/16 10:40:15;;;;;;;6.93;2.20;;;2.20;99.90;;;;;;4897483;28;20044;-62
2024/01/16 10:42:41;;;;;;;5.15;1.83;;;2.20;99.90;;;;;;4905341;28;20054;-63
2024/01/16 10:45:07;;;;;;;3.40;1.30;;;2.20;99.90;;;;;;4896786;28;20052;-62
2024/01/16 10:47:37;;;;;;;2.85;1.60;;;2.20;99.90;;;;;;4892834;28;20048;-62
2024/01/16 10:50:09;;;;;;;3.03;1.30;;;2.20;99.90;;;;;;4899911;28;20041;-62
2024/01/16 10:52:39;;;;;;;4.25;1.65;;;2.20;99.90;;;;;;4896700;28;20086;-62
2024/01/16 10:55:07;;;;;;;4.55;1.70;;;2.20;99.90;;;;;;4882953;28;20055;-62
2024/01/16 10:57:40;;;;;;;3.40;1.60;;;2.10;99.90;;;;;;4894853;28;20040;-62
2024/01/16 11:00:11;;;;;;;3.30;1.88;;;2.20;99.90;;;;;;4910976;28;20055;-62
2024/01/16 11:02:46;;;;;;;3.45;1.77;;;2.20;99.90;;;;;;4917929;28;20050;-62
2024/01/16 11:05:13;;;;;;;7.25;2.10;;;2.20;99.90;;;;;;4892973;28;20046;-63
2024/01/16 11:07:41;;;;;;;7.32;2.45;;;2.20;99.90;;;;;;4912106;28;20041;-62
2024/01/16 11:10:08;;;;;;;4.90;1.88;;;2.20;99.90;;;;;;4906471;28;20380;-63
2024/01/16 11:12:35;;;;;;;9.68;2.05;;;2.20;99.90;;;;;;4889992;28;20147;-62
2024/01/16 11:15:03;;;;;;;7.90;1.88;;;2.20;99.90;;;;;;4892796;28;20044;-63
2024/01/16 11:17:31;;;;;;;3.60;1.30;;;2.00;99.90;;;;;;4871955;29;20044;-63
2024/01/16 11:19:57;;;;;;;6.15;1.15;;;2.00;99.90;;;;;;4902042;28;20063;-63
2024/01/16 11:22:25;;;;;;;7.40;2.15;;;2.00;99.90;;;;;;4896431;28;20056;-63
2024/01/16 11:25:09;;;;;;;7.07;1.40;;;2.00;99.90;;;;;;4890883;28;20445;-62
2024/01/16 11:27:39;;;;;;;8.13;1.80;;;2.00;99.90;;;;;;4890557;28;20052;-63
2024/01/16 11:30:10;;;;;;;8.82;1.70;;;2.00;99.90;;;;;;4888082;28;20059;-63
2024/01/16 11:32:44;;;;;;;5.95;2.20;;;2.00;99.90;;;;;;4886266;28;20515;-63
2024/01/16 11:35:13;;;;;;;10.65;2.33;;;2.00;99.90;;;;;;4890482;28;20060;-62
2024/01/16 11:37:42;;;;;;;5.55;2.42;;;2.00;99.90;;;;;;4891828;28;20056;-63
2024/01/16 11:40:19;;;;;;;9.30;2.78;;;2.00;99.90;;;;;;4893198;28;20044;-62
2024/01/16 11:42:46;;;;;;;6.05;1.83;;;2.00;99.90;;;;;;4887419;28;20103;-63
2024/01/16 11:45:30;;;;;;;9.60;2.13;;;2.00;99.90;;;;;;4887822;28;20075;-62
2024/01/16 11:48:15;;;;;;;5.78;2.35;;;2.00;99.90;;;;;;4912827;28;20067;-63
2024/01/16 11:50:41;;;;;;;8.68;2.53;;;2.10;99.90;;;;;;4888570;28;20055;-63
2024/01/16 11:53:07;;;;;;;9.77;2.53;;;2.20;99.90;;;;;;4877220;28;20052;-63
2024/01/16 11:55:35;;;;;;;6.35;1.52;;;2.30;99.90;;;;;;4888332;28;20085;-63
2024/01/16 11:58:30;;;;;;;12.32;1.75;;;2.30;99.90;;;;;;4885719;28;20056;-63
2024/01/16 12:00:57;;;;;;;11.63;3.53;;;2.40;99.90;;;;;;4887566;28;20044;-63
2024/01/16 12:03:23;;;;;;;8.52;1.60;;;2.50;99.90;;;;;;4895542;28;20495;-63
2024/01/16 12:05:59;;;;;;;9.40;2.10;;;2.60;99.90;;;;;;4895225;28;20037;-63
2024/01/16 12:08:25;;;;;;;10.20;2.17;;;2.60;99.90;;;;;;4909897;28;20395;-63
2024/01/16 12:10:51;;;;;;;8.70;2.20;;;2.60;99.90;;;;;;4909524;28;20546;-63
2024/01/16 12:13:16;;;;;;;9.45;3.30;;;2.60;99.90;;;;;;4899936;28;20043;-63
2024/01/16 12:15:42;;;;;;;9.95;2.60;;;2.60;99.90;;;;;;4899476;28;23910;-63
2024/01/16 12:18:08;;;;;;;8.05;2.20;;;2.70;99.90;;;;;;4975526;28;20471;-63
2024/01/16 12:20:36;;;;;;;11.18;3.17;;;2.90;99.90;;;;;;4896517;28;20066;-63
2024/01/16 12:23:06;;;;;;;8.10;3.10;;;3.00;99.90;;;;;;4891863;28;20037;-63
2024/01/16 12:25:37;;;;;;;9.07;2.70;;;3.20;99.90;;;;;;4899622;28;20048;-63
2024/01/16 12:28:10;;;;;;;9.23;2.90;;;3.30;99.90;;;;;;4904022;28;20077;-63
2024/01/16 12:30:37;;;;;;;7.95;3.40;;;3.40;99.90;;;;;;4883265;28;20040;-63
2024/01/16 12:33:10;;;;;;;12.88;3.75;;;3.40;99.90;;;;;;4895282;28;20040;-63
2024/01/16 12:35:37;;;;;;;13.63;3.67;;;3.50;99.90;;;;;;4891553;28;20045;-63
2024/01/16 12:38:05;;;;;;;11.13;5.05;;;3.40;99.90;;;;;;4900336;28;20487;-63
2024/01/16 12:40:32;;;;;;;8.75;4.07;;;3.40;99.90;;;;;;4891135;28;20050;-63
2024/01/16 12:42:58;;;;;;;9.35;4.75;;;3.40;99.90;;;;;;4972295;28;20076;-63
2024/01/16 12:45:24;;;;;;;11.38;4.22;;;3.40;99.90;;;;;;4897943;28;20075;-63
2024/01/16 12:47:53;;;;;;;11.65;4.25;;;3.40;99.90;;;;;;4889147;28;20118;-63
2024/01/16 12:50:23;;;;;;;10.68;4.35;;;3.40;99.90;;;;;;4901067;28;20040;-63
2024/01/16 12:52:50;;;;;;;9.45;4.47;;;3.30;99.90;;;;;;4889700;28;20055;-63